createdAt,value
2023-04-14T00:01:27.608Z,6.00
2023-04-14T00:03:56.005Z,7.37
2023-04-14T00:06:24.223Z,4.80
2023-04-14T00:08:52.541Z,4.70
2023-04-14T00:11:20.573Z,4.67
2023-04-14T00:13:51.501Z,3.17
2023-04-14T00:16:19.743Z,3.37
2023-04-14T00:18:47.870Z,3.93
2023-04-14T00:21:16.422Z,4.80
2023-04-14T00:23:44.515Z,6.83
2023-04-14T00:26:12.862Z,5.20
2023-04-14T00:28:40.957Z,2.97
2023-04-14T00:31:11.494Z,3.20
2023-04-14T00:33:39.844Z,3.17
2023-04-14T00:36:08.964Z,2.30
2023-04-14T00:38:37.137Z,2.67
2023-04-14T00:41:05.426Z,3.47
2023-04-14T00:43:33.524Z,2.17
2023-04-14T00:46:01.810Z,3.27
2023-04-14T00:48:31.582Z,3.40
2023-04-14T00:50:59.875Z,1.80
2023-04-14T00:53:28.649Z,2.80
2023-04-14T00:55:56.808Z,4.23
2023-04-14T00:58:25.167Z,3.03
2023-04-14T01:00:55.634Z,3.20
2023-04-14T01:03:25.034Z,2.53
2023-04-14T01:05:54.875Z,2.33
2023-04-14T01:08:23.296Z,2.83
2023-04-14T01:11:05.395Z,2.43
2023-04-14T01:13:42.532Z,1.70
2023-04-14T01:16:17.842Z,2.70
2023-04-14T01:18:55.292Z,1.93
2023-04-14T01:21:30.058Z,1.77
2023-04-14T01:24:31.883Z,1.97
2023-04-14T01:27:07.148Z,1.83
2023-04-14T01:30:04.545Z,2.27
2023-04-14T01:32:37.671Z,2.43
2023-04-14T01:35:14.388Z,2.13
2023-04-14T01:37:48.805Z,2.17
2023-04-14T01:40:19.687Z,3.20
2023-04-14T01:42:56.619Z,2.40
2023-04-14T01:45:27.972Z,4.57
2023-04-14T01:47:57.976Z,4.73
2023-04-14T01:50:28.330Z,6.20
2023-04-14T01:52:57.223Z,5.53
2023-04-14T01:55:30.060Z,7.43
2023-04-14T01:58:00.085Z,4.63
2023-04-14T02:00:28.933Z,7.33
2023-04-14T02:02:58.871Z,4.40
2023-04-14T02:05:28.536Z,6.70
2023-04-14T02:07:58.598Z,5.03
2023-04-14T02:10:29.044Z,5.60
2023-04-14T02:12:59.994Z,7.17
2023-04-14T02:15:29.382Z,7.70
2023-04-14T02:18:00.269Z,7.80
2023-04-14T02:20:31.023Z,7.23
2023-04-14T02:23:00.689Z,5.53
2023-04-14T02:25:33.551Z,5.43
2023-04-14T02:28:03.976Z,5.70
2023-04-14T02:30:34.979Z,5.67
2023-04-14T02:33:08.544Z,4.93
2023-04-14T02:35:43.458Z,5.07
2023-04-14T02:38:20.165Z,6.17
2023-04-14T02:40:48.745Z,4.20
2023-04-14T02:43:20.709Z,5.07
2023-04-14T02:45:52.868Z,5.90
2023-04-14T02:48:26.129Z,5.63
2023-04-14T02:50:56.409Z,5.50
2023-04-14T02:53:26.665Z,5.47
2023-04-14T02:55:54.831Z,4.30
2023-04-14T02:58:23.414Z,6.57
2023-04-14T03:00:52.457Z,5.13
2023-04-14T03:03:21.544Z,4.17
2023-04-14T03:05:52.256Z,5.27
2023-04-14T03:08:21.728Z,4.90
2023-04-14T03:10:50.680Z,7.20
2023-04-14T03:13:22.500Z,5.70
2023-04-14T03:15:52.230Z,5.27
2023-04-14T03:18:22.380Z,4.93
2023-04-14T03:20:53.286Z,4.63
2023-04-14T03:23:24.719Z,4.13
2023-04-14T03:25:55.522Z,4.30
2023-04-14T03:28:27.670Z,4.43
2023-04-14T03:30:56.720Z,4.83
2023-04-14T03:33:28.285Z,7.67
2023-04-14T03:35:59.214Z,4.30
2023-04-14T03:38:29.124Z,6.87
2023-04-14T03:41:01.321Z,5.63
2023-04-14T03:43:30.776Z,3.63
2023-04-14T03:45:58.902Z,7.17
2023-04-14T03:48:29.967Z,5.93
2023-04-14T03:51:02.739Z,5.47
2023-04-14T03:53:34.634Z,7.00
2023-04-14T03:56:04.781Z,12.37
2023-04-14T03:58:34.401Z,7.47
2023-04-14T04:01:05.344Z,5.60
2023-04-14T04:03:35.639Z,6.73
2023-04-14T04:06:08.038Z,7.37
2023-04-14T04:08:37.943Z,5.23
2023-04-14T04:11:08.698Z,16.37
2023-04-14T04:13:38.025Z,53.93
2023-04-14T04:16:09.733Z,45.03
2023-04-14T04:18:40.893Z,86.27
2023-04-14T04:21:12.323Z,54.27
2023-04-14T04:23:43.332Z,89.10
2023-04-14T04:26:11.603Z,82.53
2023-04-14T04:28:40.201Z,56.73
2023-04-14T04:31:10.876Z,107.37
2023-04-14T04:33:39.433Z,121.00
2023-04-14T04:36:09.055Z,111.47
2023-04-14T04:38:38.637Z,92.97
2023-04-14T04:41:06.864Z,88.17
2023-04-14T04:43:34.890Z,79.83
2023-04-14T04:46:24.882Z,89.63
2023-04-14T04:48:55.521Z,74.23
2023-04-14T04:51:23.618Z,26.73
2023-04-14T04:53:53.437Z,23.40
2023-04-14T04:56:21.966Z,109.73
2023-04-14T04:58:50.062Z,51.10
2023-04-14T05:01:19.367Z,46.50
2023-04-14T05:03:47.936Z,34.33
2023-04-14T05:06:16.747Z,49.40
2023-04-14T05:08:45.483Z,21.00
2023-04-14T05:11:15.686Z,44.23
2023-04-14T05:13:43.709Z,76.43
2023-04-14T05:16:13.927Z,43.07
2023-04-14T05:18:42.924Z,21.47
2023-04-14T05:21:12.810Z,63.87
2023-04-14T05:23:43.797Z,57.70
2023-04-14T05:28:45.656Z,80.37
2023-04-14T05:31:13.801Z,72.87
2023-04-14T05:33:41.805Z,61.33
2023-04-14T05:36:10.217Z,46.60
2023-04-14T05:38:40.057Z,61.30
2023-04-14T05:41:08.550Z,56.10
2023-04-14T05:43:37.162Z,52.30
2023-04-14T05:46:07.397Z,31.73
2023-04-14T05:48:37.775Z,18.20
2023-04-14T05:51:06.479Z,32.87
2023-04-14T05:53:34.715Z,10.70
2023-04-14T05:56:02.795Z,18.63
2023-04-14T05:58:31.374Z,22.93
2023-04-14T06:00:59.595Z,18.23
2023-04-14T06:03:30.335Z,43.20
2023-04-14T06:05:58.591Z,36.33
2023-04-14T06:08:26.788Z,58.07
2023-04-14T06:10:55.077Z,44.00
2023-04-14T06:13:23.228Z,97.57
2023-04-14T06:15:51.755Z,77.10
2023-04-14T06:18:19.816Z,45.20
2023-04-14T06:20:49.637Z,86.97
2023-04-14T06:23:17.932Z,44.63
2023-04-14T06:25:46.195Z,80.23
2023-04-14T06:28:14.898Z,93.10
2023-04-14T06:30:43.199Z,32.27
2023-04-14T06:33:11.779Z,31.77
2023-04-14T06:35:39.906Z,41.20
2023-04-14T06:38:09.482Z,29.30
2023-04-14T06:40:39.043Z,40.43
2023-04-14T06:43:07.677Z,26.30
2023-04-14T06:45:35.883Z,28.80
2023-04-14T06:48:03.946Z,16.90
2023-04-14T06:50:32.282Z,22.17
2023-04-14T06:53:00.319Z,30.80
2023-04-14T06:55:29.964Z,57.63
2023-04-14T06:57:58.030Z,40.03
2023-04-14T07:00:26.514Z,14.43
2023-04-14T07:02:55.059Z,42.67
2023-04-14T07:05:23.432Z,23.23
2023-04-14T07:07:51.765Z,19.50
2023-04-14T07:10:20.112Z,35.70
2023-04-14T07:12:49.694Z,59.17
2023-04-14T07:15:18.202Z,23.27
2023-04-14T07:17:46.480Z,24.53
2023-04-14T07:20:15.190Z,56.30
2023-04-14T07:22:43.238Z,28.40
2023-04-14T07:25:11.548Z,17.50
2023-04-14T07:27:43.230Z,13.53
2023-04-14T07:30:20.302Z,75.10
2023-04-14T07:32:48.512Z,40.80
2023-04-14T07:35:16.773Z,53.90
2023-04-14T07:37:44.795Z,36.73
2023-04-14T07:40:13.413Z,16.50
2023-04-14T07:42:41.671Z,26.40
2023-04-14T07:45:10.821Z,13.37
2023-04-14T07:47:40.325Z,25.83
2023-04-14T07:50:10.170Z,12.07
2023-04-14T07:52:38.476Z,17.57
2023-04-14T07:55:07.130Z,17.90
2023-04-14T07:57:36.217Z,13.33
2023-04-14T08:00:06.087Z,10.27
2023-04-14T08:02:35.825Z,11.43
2023-04-14T08:05:06.650Z,9.47
2023-04-14T08:07:34.728Z,10.17
2023-04-14T08:10:03.609Z,8.30
2023-04-14T08:12:31.610Z,8.37
2023-04-14T08:14:59.710Z,10.63
2023-04-14T08:17:27.849Z,11.30
2023-04-14T08:19:56.202Z,8.60
2023-04-14T08:22:26.186Z,8.83
2023-04-14T08:24:54.355Z,10.30
2023-04-14T08:27:22.674Z,10.83
2023-04-14T08:29:51.525Z,9.43
2023-04-14T08:32:19.746Z,8.53
2023-04-14T08:35:38.111Z,9.17
2023-04-14T08:37:37.967Z,8.77
2023-04-14T08:40:10.412Z,11.23
2023-04-14T08:42:38.980Z,11.00
2023-04-14T08:45:08.306Z,7.63
2023-04-14T08:47:37.686Z,9.63
2023-04-14T08:50:08.268Z,9.90
2023-04-14T08:52:41.274Z,9.07
2023-04-14T08:55:11.464Z,8.77
2023-04-14T08:57:41.506Z,8.67
2023-04-14T09:00:11.985Z,7.93
2023-04-14T09:02:41.499Z,7.97
2023-04-14T09:05:11.471Z,14.63
2023-04-14T09:07:43.020Z,9.63
2023-04-14T09:10:13.301Z,7.83
2023-04-14T09:12:42.472Z,8.40
2023-04-14T09:15:13.515Z,9.27
2023-04-14T09:17:44.917Z,6.63
2023-04-14T09:20:38.273Z,6.97
2023-04-14T09:23:06.099Z,6.47
2023-04-14T09:25:35.054Z,8.63
2023-04-14T09:28:04.818Z,9.57
2023-04-14T09:30:33.313Z,9.13
2023-04-14T09:33:01.866Z,8.57
2023-04-14T09:35:45.722Z,8.67
2023-04-14T09:38:16.151Z,9.73
2023-04-14T09:40:45.378Z,7.00
2023-04-14T09:43:27.197Z,6.73
2023-04-14T09:45:57.964Z,5.33
2023-04-14T09:48:26.215Z,13.60
2023-04-14T09:50:59.447Z,6.10
2023-04-14T09:53:30.128Z,9.37
2023-04-14T09:56:00.225Z,5.97
2023-04-14T09:58:31.736Z,6.00
2023-04-14T10:01:00.782Z,8.00
2023-04-14T10:03:36.743Z,8.40
2023-04-14T10:06:09.922Z,7.53
2023-04-14T10:08:41.477Z,6.40
2023-04-14T10:11:18.122Z,8.57
2023-04-14T10:13:46.657Z,6.37
2023-04-14T10:16:15.655Z,8.47
2023-04-14T10:18:44.340Z,8.63
2023-04-14T10:21:12.959Z,8.23
2023-04-14T10:23:43.370Z,9.63
2023-04-14T10:26:12.879Z,9.93
2023-04-14T10:28:44.734Z,8.97
2023-04-14T10:31:17.144Z,7.47
2023-04-14T10:33:45.482Z,9.20
2023-04-14T10:36:13.912Z,8.23
2023-04-14T10:38:45.820Z,10.50
2023-04-14T10:41:14.466Z,7.83
2023-04-14T10:43:42.667Z,8.47
2023-04-14T10:46:11.481Z,5.90
2023-04-14T10:48:43.290Z,7.30
2023-04-14T10:51:12.818Z,8.70
2023-04-14T10:53:47.732Z,6.83
2023-04-14T10:56:16.349Z,8.47
2023-04-14T10:58:56.657Z,6.00
2023-04-14T11:01:27.001Z,6.63
2023-04-14T11:03:56.511Z,6.03
2023-04-14T11:06:50.718Z,8.80
2023-04-14T11:09:28.292Z,7.47
2023-04-14T11:11:57.921Z,8.67
2023-04-14T11:14:31.733Z,6.63
2023-04-14T11:17:04.421Z,7.60
2023-04-14T11:19:34.201Z,7.80
2023-04-14T11:22:02.793Z,5.30
2023-04-14T11:24:35.336Z,7.73
2023-04-14T11:27:03.615Z,4.67
2023-04-14T11:29:33.111Z,6.17
2023-04-14T11:32:06.748Z,6.80
2023-04-14T11:34:35.955Z,6.37
2023-04-14T11:37:06.130Z,6.87
2023-04-14T11:39:36.909Z,6.00
2023-04-14T11:42:06.372Z,4.67
2023-04-14T11:44:35.126Z,6.97
2023-04-14T11:47:05.785Z,6.13
2023-04-14T11:49:35.305Z,5.63
2023-04-14T11:52:08.853Z,6.47
2023-04-14T11:54:40.116Z,5.83
2023-04-14T11:57:13.605Z,4.90
2023-04-14T11:59:45.938Z,9.57
2023-04-14T12:02:19.060Z,5.60
2023-04-14T12:04:50.245Z,8.53
2023-04-14T12:07:20.033Z,6.93
2023-04-14T12:09:50.825Z,10.23
2023-04-14T12:12:20.393Z,9.10
2023-04-14T12:14:50.304Z,8.90
2023-04-14T12:17:21.713Z,6.03
2023-04-14T12:19:50.354Z,7.43
2023-04-14T12:22:26.386Z,6.17
2023-04-14T12:24:58.798Z,8.63
2023-04-14T12:27:28.766Z,4.33
2023-04-14T12:29:57.787Z,5.70
2023-04-14T12:32:26.216Z,6.83
2023-04-14T12:34:57.896Z,5.10
2023-04-14T12:37:27.900Z,5.10
2023-04-14T12:40:00.251Z,5.03
2023-04-14T12:42:29.735Z,5.30
2023-04-14T12:44:59.329Z,3.43
2023-04-14T12:47:29.185Z,5.73
2023-04-14T12:49:58.619Z,4.73
2023-04-14T12:52:40.906Z,4.23
2023-04-14T12:55:22.384Z,4.47
2023-04-14T12:57:54.025Z,4.43
2023-04-14T13:00:23.178Z,5.07
2023-04-14T13:02:52.484Z,4.60
2023-04-14T13:05:21.259Z,4.50
2023-04-14T13:07:49.733Z,4.73
2023-04-14T13:10:19.830Z,5.03
2023-04-14T13:12:47.879Z,5.70
2023-04-14T13:15:27.893Z,4.23
2023-04-14T13:18:04.890Z,6.03
2023-04-14T13:20:33.635Z,6.47
2023-04-14T13:23:02.255Z,5.87
2023-04-14T13:25:31.784Z,5.10
2023-04-14T13:27:59.874Z,5.30
2023-04-14T13:30:28.317Z,5.47
2023-04-14T13:32:57.956Z,5.90
2023-04-14T13:35:26.224Z,3.40
2023-04-14T13:37:54.545Z,3.13
2023-04-14T13:40:22.617Z,5.47
2023-04-14T13:42:52.456Z,5.50
2023-04-14T13:45:20.827Z,5.83
2023-04-14T13:47:49.993Z,3.30
2023-04-14T13:50:18.569Z,4.97
2023-04-14T13:52:47.118Z,5.83
2023-04-14T13:55:15.385Z,3.67
2023-04-14T13:57:43.419Z,4.40
2023-04-14T14:00:15.157Z,8.63
2023-04-14T14:02:43.753Z,6.67
2023-04-14T14:05:13.210Z,5.47
2023-04-14T14:07:41.798Z,6.20
2023-04-14T14:10:11.003Z,5.00
2023-04-14T14:12:39.347Z,2.90
2023-04-14T14:15:08.965Z,6.17
2023-04-14T14:17:38.526Z,4.40
2023-04-14T14:20:07.687Z,6.97
2023-04-14T14:22:35.947Z,5.27
2023-04-14T14:25:18.518Z,6.27
2023-04-14T14:27:48.252Z,9.70
2023-04-14T14:30:18.708Z,8.17
2023-04-14T14:32:48.177Z,4.87
2023-04-14T14:35:16.742Z,5.87
2023-04-14T14:37:45.959Z,6.03
2023-04-14T14:40:15.204Z,5.20
2023-04-14T14:42:44.147Z,4.93
2023-04-14T14:45:16.861Z,5.00
2023-04-14T14:47:53.601Z,5.00
2023-04-14T14:50:21.898Z,4.77
2023-04-14T14:52:50.171Z,8.23
2023-04-14T14:55:18.678Z,9.10
2023-04-14T14:57:46.727Z,16.07
2023-04-14T15:00:15.971Z,6.47
2023-04-14T15:02:44.364Z,4.13
2023-04-14T15:05:14.083Z,5.80
2023-04-14T15:07:42.066Z,6.23
2023-04-14T15:10:10.676Z,4.37
2023-04-14T15:12:38.847Z,6.90
2023-04-14T15:15:08.934Z,3.90
2023-04-14T15:17:37.781Z,4.83
2023-04-14T15:20:07.237Z,4.70
2023-04-14T15:22:36.992Z,6.20
2023-04-14T15:25:05.948Z,6.07
2023-04-14T15:27:34.184Z,4.57
2023-04-14T15:30:02.369Z,5.33
2023-04-14T15:32:30.881Z,3.93
2023-04-14T15:34:59.520Z,6.27
2023-04-14T15:37:27.989Z,6.87
2023-04-14T15:39:57.649Z,3.47
2023-04-14T15:42:25.999Z,5.40
2023-04-14T15:44:58.702Z,3.90
2023-04-14T15:47:27.063Z,6.33
2023-04-14T15:50:08.818Z,4.87
2023-04-14T15:52:38.823Z,3.20
2023-04-14T15:55:11.406Z,4.75
2023-04-14T15:57:39.432Z,4.33
2023-04-14T16:00:08.919Z,8.27
2023-04-14T16:02:37.578Z,3.03
2023-04-14T16:05:06.807Z,3.33
2023-04-14T16:07:35.312Z,3.73
2023-04-14T16:10:06.593Z,7.18
2023-04-14T16:12:37.922Z,5.22
2023-04-14T16:15:08.944Z,5.10
2023-04-14T16:17:37.239Z,4.95
2023-04-14T16:20:05.749Z,4.43
2023-04-14T16:22:34.299Z,3.25
2023-04-14T16:25:04.743Z,3.08
2023-04-14T16:27:32.919Z,5.15
2023-04-14T16:30:03.495Z,4.30
2023-04-14T16:32:31.540Z,3.25
2023-04-14T16:34:59.752Z,3.95
2023-04-14T16:37:27.947Z,4.68
2023-04-14T16:39:56.546Z,4.25
2023-04-14T16:42:25.535Z,4.60
2023-04-14T16:44:54.236Z,3.83
2023-04-14T16:47:25.039Z,5.13
2023-04-14T16:49:53.398Z,5.30
2023-04-14T16:52:21.977Z,3.83
2023-04-14T16:54:50.154Z,3.88
2023-04-14T16:57:18.614Z,3.10
2023-04-14T16:59:48.253Z,3.40
2023-04-14T17:02:16.681Z,2.40
2023-04-14T17:04:46.761Z,2.03
2023-04-14T17:07:15.078Z,4.38
2023-04-14T17:09:43.554Z,4.22
2023-04-14T17:12:11.776Z,4.88
2023-04-14T17:14:40.209Z,3.42
2023-04-14T17:17:08.457Z,6.03
2023-04-14T17:19:36.781Z,2.60
2023-04-14T17:22:06.547Z,4.47
2023-04-14T17:24:34.971Z,5.27
2023-04-14T17:27:04.105Z,5.43
2023-04-14T17:29:33.411Z,3.73
2023-04-14T17:32:02.797Z,3.93
2023-04-14T17:34:31.332Z,3.57
2023-04-14T17:37:00.548Z,3.53
2023-04-14T17:39:30.353Z,3.47
2023-04-14T17:41:59.809Z,5.43
2023-04-14T17:44:32.869Z,3.27
2023-04-14T17:47:03.432Z,4.20
2023-04-14T17:49:33.760Z,4.50
2023-04-14T17:52:01.883Z,3.10
2023-04-14T17:54:31.816Z,3.50
2023-04-14T17:56:59.997Z,3.13
2023-04-14T17:59:28.204Z,2.97
2023-04-14T18:01:56.323Z,2.60
2023-04-14T18:04:24.813Z,5.17
2023-04-14T18:06:52.905Z,4.27
2023-04-14T18:09:21.022Z,3.73
2023-04-14T18:11:50.788Z,4.97
2023-04-14T18:14:19.065Z,4.27
2023-04-14T18:16:47.224Z,4.63
2023-04-14T18:19:15.843Z,5.10
2023-04-14T18:21:44.955Z,4.27
2023-04-14T18:26:45.014Z,4.03
2023-04-14T18:29:14.770Z,4.90
2023-04-14T18:31:43.625Z,4.00
2023-04-14T18:34:13.288Z,5.37
2023-04-14T18:36:41.388Z,4.40
2023-04-14T18:39:09.472Z,6.30
2023-04-14T18:41:37.843Z,6.33
2023-04-14T18:44:06.637Z,5.63
2023-04-14T18:46:37.949Z,6.63
2023-04-14T18:49:06.202Z,6.93
2023-04-14T18:51:34.393Z,9.13
2023-04-14T18:54:02.943Z,14.93
2023-04-14T18:56:31.760Z,12.33
2023-04-14T18:59:00.255Z,8.23
2023-04-14T19:01:28.918Z,6.73
2023-04-14T19:03:59.333Z,6.07
2023-04-14T19:06:28.817Z,3.83
2023-04-14T19:08:57.485Z,6.00
2023-04-14T19:11:25.557Z,7.50
2023-04-14T19:13:55.210Z,4.83
2023-04-14T19:16:24.558Z,5.90
2023-04-14T19:18:53.502Z,7.73
2023-04-14T19:21:23.026Z,9.13
2023-04-14T19:23:53.370Z,9.53
2023-04-14T19:26:21.829Z,10.37
2023-04-14T19:28:49.982Z,7.37
2023-04-14T19:31:19.963Z,16.97
2023-04-14T19:33:48.224Z,16.97
2023-04-14T19:36:17.496Z,14.13
2023-04-14T19:38:47.363Z,10.83
2023-04-14T19:41:15.899Z,12.73
2023-04-14T19:43:44.292Z,9.90
2023-04-14T19:46:13.552Z,5.90
2023-04-14T19:48:41.719Z,5.53
2023-04-14T19:51:10.094Z,4.77
2023-04-14T19:53:38.290Z,10.13
2023-04-14T19:56:08.851Z,7.10
2023-04-14T19:58:37.121Z,5.87
2023-04-14T20:01:06.078Z,8.63
2023-04-14T20:03:34.921Z,5.43
2023-04-14T20:06:03.713Z,5.77
2023-04-14T20:08:32.390Z,4.50
2023-04-14T20:11:00.457Z,7.63
2023-04-14T20:13:35.010Z,6.57
2023-04-14T20:16:03.060Z,4.10
2023-04-14T20:18:31.275Z,5.23
2023-04-14T20:20:59.800Z,8.40
2023-04-14T20:23:28.207Z,5.27
2023-04-14T20:25:57.011Z,7.83
2023-04-14T20:28:26.728Z,6.40
2023-04-14T20:30:57.335Z,5.93
2023-04-14T20:33:25.737Z,6.00
2023-04-14T20:35:54.417Z,5.47
2023-04-14T20:38:23.551Z,6.70
2023-04-14T20:40:51.864Z,11.10
2023-04-14T20:43:19.925Z,8.43
2023-04-14T20:45:50.199Z,8.13
2023-04-14T20:48:20.659Z,8.23
2023-04-14T20:50:50.217Z,5.83
2023-04-14T20:53:18.574Z,7.00
2023-04-14T20:55:46.950Z,10.07
2023-04-14T20:58:15.448Z,8.10
2023-04-14T21:00:43.511Z,7.00
2023-04-14T21:03:11.865Z,8.10
2023-04-14T21:05:42.378Z,7.23
2023-04-14T21:08:10.774Z,9.13
2023-04-14T21:11:15.519Z,7.70
2023-04-14T21:15:26.795Z,5.43
2023-04-14T21:16:16.418Z,6.80
2023-04-14T21:18:44.979Z,7.97
2023-04-14T21:21:14.954Z,8.43
2023-04-14T21:23:43.138Z,7.47
2023-04-14T21:26:11.464Z,5.57
2023-04-14T21:28:39.915Z,5.33
2023-04-14T21:31:08.442Z,4.90
2023-04-14T21:33:39.500Z,5.67
2023-04-14T21:36:09.886Z,5.93
2023-04-14T21:38:40.238Z,5.83
2023-04-14T21:41:09.545Z,4.77
2023-04-14T21:43:38.789Z,7.00
2023-04-14T21:46:07.286Z,5.73
2023-04-14T21:48:35.455Z,6.17
2023-04-14T21:51:04.713Z,5.40
2023-04-14T21:53:33.470Z,6.20
2023-04-14T21:56:10.003Z,6.07
2023-04-14T21:58:39.698Z,5.60
2023-04-14T22:01:10.012Z,5.33
2023-04-14T22:03:40.542Z,6.13
2023-04-14T22:06:10.379Z,5.57
2023-04-14T22:08:39.668Z,5.70
2023-04-14T22:11:09.150Z,4.27
2023-04-14T22:13:37.376Z,4.93
2023-04-14T22:16:06.054Z,6.77
2023-04-14T22:18:35.942Z,5.60
2023-04-14T22:21:04.967Z,6.30
2023-04-14T22:23:33.216Z,4.80
2023-04-14T22:26:01.477Z,7.20
2023-04-14T22:28:31.357Z,5.33
2023-04-14T22:31:00.992Z,6.00
2023-04-14T22:34:00.083Z,4.67
2023-04-14T22:36:29.850Z,6.23
2023-04-14T22:38:57.997Z,8.20
2023-04-14T22:41:26.357Z,4.67
2023-04-14T22:43:56.399Z,6.03
2023-04-14T22:46:24.821Z,4.67
2023-04-14T22:48:52.902Z,5.40
2023-04-14T22:51:20.924Z,8.27
2023-04-14T22:53:50.097Z,8.73
2023-04-14T22:56:18.513Z,7.53
2023-04-14T22:58:47.240Z,6.47
2023-04-14T23:01:22.424Z,7.83
2023-04-14T23:03:52.901Z,7.87
2023-04-14T23:06:21.227Z,8.90
2023-04-14T23:08:49.765Z,8.60
2023-04-14T23:11:20.936Z,7.03
2023-04-14T23:13:50.836Z,5.47
2023-04-14T23:16:22.407Z,8.40
2023-04-14T23:18:52.613Z,7.77
2023-04-14T23:21:22.373Z,5.80
2023-04-14T23:23:50.979Z,6.23
2023-04-14T23:26:19.888Z,9.33
2023-04-14T23:28:48.329Z,8.70
2023-04-14T23:31:17.596Z,6.17
2023-04-14T23:33:49.592Z,8.07
2023-04-14T23:36:18.835Z,8.60
2023-04-14T23:38:46.992Z,6.90
2023-04-14T23:41:15.074Z,7.10
2023-04-14T23:43:43.393Z,6.00
2023-04-14T23:46:11.589Z,7.83
2023-04-14T23:48:39.718Z,5.90
2023-04-14T23:51:16.122Z,9.60
2023-04-14T23:53:47.425Z,6.43
2023-04-14T23:56:15.529Z,5.17
2023-04-14T23:58:44.129Z,6.33
